createdAt,value
2022-10-16T00:01:30.563Z,2.35
2022-10-16T00:03:59.873Z,2.20
2022-10-16T00:06:28.927Z,2.30
2022-10-16T00:08:56.807Z,2.47
2022-10-16T00:11:29.185Z,2.10
2022-10-16T00:13:58.938Z,2.45
2022-10-16T00:16:27.064Z,2.85
2022-10-16T00:18:55.025Z,2.22
2022-10-16T00:21:25.212Z,2.15
2022-10-16T00:24:12.023Z,2.42
2022-10-16T00:26:40.437Z,2.40
2022-10-16T00:29:08.648Z,4.10
2022-10-16T00:31:36.460Z,3.05
2022-10-16T00:34:04.089Z,2.53
2022-10-16T00:36:31.888Z,2.72
2022-10-16T00:41:34.347Z,2.72
2022-10-16T00:44:04.652Z,2.38
2022-10-16T00:46:35.376Z,2.50
2022-10-16T00:49:17.956Z,2.70
2022-10-16T00:51:52.066Z,2.50
2022-10-16T00:54:24.213Z,2.58
2022-10-16T00:56:52.202Z,2.75
2022-10-16T00:59:27.635Z,2.85
2022-10-16T01:01:56.342Z,2.47
2022-10-16T01:04:25.554Z,2.83
2022-10-16T01:07:25.689Z,2.30
2022-10-16T01:10:08.943Z,2.80
2022-10-16T01:12:47.023Z,2.60
2022-10-16T01:15:18.189Z,2.40
2022-10-16T01:17:59.526Z,2.67
2022-10-16T01:20:41.278Z,2.53
2022-10-16T01:23:19.419Z,2.20
2022-10-16T01:26:02.133Z,2.50
2022-10-16T01:28:39.960Z,2.83
2022-10-16T01:31:07.986Z,2.55
2022-10-16T01:33:43.426Z,2.67
2022-10-16T01:36:18.362Z,2.65
2022-10-16T01:38:50.835Z,2.20
2022-10-16T01:41:29.100Z,2.75
2022-10-16T01:44:15.167Z,2.97
2022-10-16T01:46:44.797Z,2.70
2022-10-16T01:49:14.337Z,2.65
2022-10-16T01:51:45.389Z,2.55
2022-10-16T01:54:14.875Z,3.03
2022-10-16T01:56:43.627Z,2.20
2022-10-16T01:59:17.779Z,2.38
2022-10-16T02:01:51.103Z,2.38
2022-10-16T02:04:23.040Z,2.63
2022-10-16T02:09:18.004Z,2.70
2022-10-16T02:11:46.200Z,2.20
2022-10-16T02:14:13.427Z,2.78
2022-10-16T02:16:46.307Z,2.50
2022-10-16T02:19:16.198Z,2.35
2022-10-16T02:22:05.620Z,2.75
2022-10-16T02:25:05.849Z,2.47
2022-10-16T02:27:48.092Z,2.22
2022-10-16T02:30:36.460Z,2.22
2022-10-16T02:33:06.521Z,2.28
2022-10-16T02:35:34.473Z,2.65
2022-10-16T02:38:02.821Z,2.10
2022-10-16T02:40:30.299Z,2.17
2022-10-16T02:42:57.584Z,2.70
2022-10-16T02:45:25.445Z,2.03
2022-10-16T02:47:53.001Z,2.35
2022-10-16T02:50:20.254Z,2.35
2022-10-16T02:52:47.474Z,2.33
2022-10-16T02:55:14.980Z,2.33
2022-10-16T02:57:42.300Z,2.22
2022-10-16T03:00:12.714Z,2.55
2022-10-16T03:02:40.153Z,2.33
2022-10-16T03:05:08.255Z,2.20
2022-10-16T03:07:35.516Z,2.20
2022-10-16T03:10:03.503Z,2.40
2022-10-16T03:12:31.100Z,2.33
2022-10-16T03:14:59.032Z,2.22
2022-10-16T03:17:26.843Z,2.30
2022-10-16T03:19:54.330Z,2.25
2022-10-16T03:22:21.570Z,2.50
2022-10-16T03:24:48.871Z,2.60
2022-10-16T03:27:16.263Z,2.42
2022-10-16T03:29:43.559Z,2.15
2022-10-16T03:32:10.900Z,2.30
2022-10-16T03:34:38.123Z,2.60
2022-10-16T03:37:05.436Z,2.40
2022-10-16T03:39:32.778Z,2.50
2022-10-16T03:42:00.036Z,2.28
2022-10-16T03:44:27.263Z,2.63
2022-10-16T03:46:54.550Z,2.20
2022-10-16T03:49:21.816Z,2.33
2022-10-16T03:51:49.187Z,2.38
2022-10-16T03:54:16.475Z,2.40
2022-10-16T03:56:43.725Z,2.28
2022-10-16T03:59:10.999Z,2.17
2022-10-16T04:01:38.260Z,2.30
2022-10-16T04:04:05.785Z,2.53
2022-10-16T04:06:33.010Z,2.70
2022-10-16T04:09:00.236Z,2.50
2022-10-16T04:11:27.486Z,2.00
2022-10-16T04:13:54.735Z,1.85
2022-10-16T04:16:22.058Z,2.08
2022-10-16T04:18:49.311Z,2.42
2022-10-16T04:21:16.639Z,2.47
2022-10-16T04:23:44.407Z,2.28
2022-10-16T04:26:11.805Z,2.40
2022-10-16T04:28:39.229Z,2.20
2022-10-16T04:31:07.531Z,2.55
2022-10-16T04:33:35.144Z,2.47
2022-10-16T04:36:04.009Z,2.28
2022-10-16T04:38:31.916Z,2.53
2022-10-16T04:40:59.487Z,2.42
2022-10-16T04:43:27.020Z,2.15
2022-10-16T04:45:55.796Z,2.30
2022-10-16T04:48:23.328Z,2.80
2022-10-16T04:50:54.383Z,2.40
2022-10-16T04:55:50.607Z,2.40
2022-10-16T04:58:18.601Z,2.47
2022-10-16T05:00:47.287Z,2.80
2022-10-16T05:03:15.091Z,2.40
2022-10-16T05:05:46.325Z,2.42
2022-10-16T05:08:15.281Z,2.30
2022-10-16T05:10:43.804Z,2.13
2022-10-16T05:13:17.550Z,2.65
2022-10-16T05:15:49.435Z,2.03
2022-10-16T05:18:17.540Z,2.90
2022-10-16T05:20:44.850Z,2.10
2022-10-16T05:25:40.971Z,2.38
2022-10-16T05:28:08.304Z,2.55
2022-10-16T05:30:37.893Z,2.80
2022-10-16T05:33:05.479Z,3.10
2022-10-16T05:35:33.016Z,3.75
2022-10-16T05:38:00.458Z,3.22
2022-10-16T05:40:27.660Z,4.45
2022-10-16T05:42:58.001Z,3.60
2022-10-16T05:45:25.266Z,2.42
2022-10-16T05:47:52.575Z,2.25
2022-10-16T05:50:20.091Z,2.55
2022-10-16T05:52:47.372Z,2.63
2022-10-16T05:55:14.846Z,2.50
2022-10-16T05:57:42.077Z,2.88
2022-10-16T06:00:12.743Z,2.70
2022-10-16T06:02:40.009Z,2.38
2022-10-16T06:05:07.575Z,3.20
2022-10-16T06:07:37.985Z,2.35
2022-10-16T06:10:06.516Z,2.33
2022-10-16T06:12:33.742Z,2.30
2022-10-16T06:15:02.546Z,2.65
2022-10-16T06:17:30.293Z,3.97
2022-10-16T06:19:57.499Z,3.08
2022-10-16T06:22:24.722Z,2.60
2022-10-16T06:24:52.047Z,2.17
2022-10-16T06:27:19.325Z,2.47
2022-10-16T06:29:46.586Z,2.63
2022-10-16T06:32:13.992Z,2.42
2022-10-16T06:34:44.141Z,2.35
2022-10-16T06:37:11.553Z,2.40
2022-10-16T06:39:38.734Z,2.70
2022-10-16T06:42:05.988Z,2.80
2022-10-16T06:44:36.866Z,2.50
2022-10-16T06:47:04.887Z,2.45
2022-10-16T06:49:32.374Z,3.00
2022-10-16T06:51:59.602Z,3.00
2022-10-16T06:54:27.061Z,2.70
2022-10-16T06:56:55.600Z,2.65
2022-10-16T06:59:23.249Z,2.42
2022-10-16T07:01:50.568Z,2.63
2022-10-16T07:04:17.881Z,2.83
2022-10-16T07:06:45.208Z,2.72
2022-10-16T07:09:12.646Z,2.70
2022-10-16T07:11:41.049Z,2.60
2022-10-16T07:14:18.250Z,3.38
2022-10-16T07:16:46.163Z,2.80
2022-10-16T07:19:15.534Z,2.30
2022-10-16T07:21:43.403Z,2.78
2022-10-16T07:24:16.109Z,3.10
2022-10-16T07:26:45.788Z,2.50
2022-10-16T07:29:15.283Z,2.88
2022-10-16T07:31:43.249Z,2.42
2022-10-16T07:34:12.642Z,2.70
2022-10-16T07:36:40.014Z,2.75
2022-10-16T07:39:07.687Z,3.25
2022-10-16T07:41:37.794Z,2.50
2022-10-16T07:44:05.778Z,3.78
2022-10-16T07:46:34.828Z,3.47
2022-10-16T07:49:02.124Z,3.38
2022-10-16T07:51:29.489Z,3.08
2022-10-16T07:53:56.712Z,3.97
2022-10-16T07:56:24.050Z,4.30
2022-10-16T07:58:52.422Z,3.20
2022-10-16T08:01:20.614Z,2.92
2022-10-16T08:03:50.455Z,3.72
2022-10-16T08:06:20.809Z,2.88
2022-10-16T08:08:51.583Z,3.38
2022-10-16T08:11:19.045Z,5.40
2022-10-16T08:13:46.391Z,2.70
2022-10-16T08:16:13.843Z,2.83
2022-10-16T08:18:42.380Z,2.85
2022-10-16T08:21:20.063Z,2.28
2022-10-16T08:23:54.537Z,3.08
2022-10-16T08:26:27.109Z,3.80
2022-10-16T08:28:55.101Z,3.90
2022-10-16T08:31:22.726Z,3.88
2022-10-16T08:33:50.480Z,2.60
2022-10-16T08:36:18.100Z,2.72
2022-10-16T08:38:48.578Z,2.80
2022-10-16T08:41:48.422Z,2.70
2022-10-16T08:44:40.373Z,2.88
2022-10-16T08:47:07.632Z,3.78
2022-10-16T08:49:35.081Z,3.50
2022-10-16T08:52:02.377Z,3.20
2022-10-16T08:54:47.715Z,3.05
2022-10-16T08:57:24.536Z,3.08
2022-10-16T08:59:53.567Z,3.30
2022-10-16T09:02:56.745Z,5.40
2022-10-16T09:05:39.707Z,2.90
2022-10-16T09:08:15.630Z,3.35
2022-10-16T09:11:05.027Z,2.70
2022-10-16T09:13:53.628Z,2.58
2022-10-16T09:16:29.191Z,2.60
2022-10-16T09:19:10.106Z,3.15
2022-10-16T09:21:43.596Z,3.03
2022-10-16T09:24:19.844Z,3.15
2022-10-16T09:26:49.146Z,2.97
2022-10-16T09:29:21.535Z,2.72
2022-10-16T09:31:50.846Z,2.65
2022-10-16T09:34:42.055Z,2.30
2022-10-16T09:37:18.478Z,2.55
2022-10-16T09:39:48.634Z,2.30
2022-10-16T09:42:25.133Z,2.40
2022-10-16T09:44:55.090Z,2.30
2022-10-16T09:47:27.364Z,2.35
2022-10-16T09:50:07.470Z,2.20
2022-10-16T09:52:35.473Z,2.70
2022-10-16T09:55:18.848Z,2.40
2022-10-16T09:57:57.100Z,2.30
2022-10-16T10:00:26.836Z,3.42
2022-10-16T10:05:30.341Z,2.25
2022-10-16T10:08:07.257Z,2.88
2022-10-16T10:10:43.235Z,2.38
2022-10-16T10:13:25.860Z,2.53
2022-10-16T10:15:54.399Z,2.70
2022-10-16T10:18:24.978Z,2.55
2022-10-16T10:21:01.250Z,2.80
2022-10-16T10:23:31.110Z,2.50
2022-10-16T10:26:05.231Z,3.58
2022-10-16T10:28:50.756Z,2.92
2022-10-16T10:31:39.570Z,3.20
2022-10-16T10:34:44.915Z,2.80
2022-10-16T10:37:27.425Z,2.78
2022-10-16T10:40:10.705Z,3.28
2022-10-16T10:42:52.065Z,3.63
2022-10-16T10:45:20.111Z,3.45
2022-10-16T10:48:05.704Z,3.40
2022-10-16T10:51:17.613Z,3.47
2022-10-16T10:53:51.141Z,3.08
2022-10-16T10:56:51.205Z,2.90
2022-10-16T10:59:47.952Z,2.83
2022-10-16T11:02:47.352Z,2.63
2022-10-16T11:05:31.611Z,3.17
2022-10-16T11:08:07.775Z,3.00
2022-10-16T11:10:43.438Z,2.92
2022-10-16T11:13:36.668Z,3.40
2022-10-16T11:16:31.183Z,3.58
2022-10-16T11:19:04.778Z,3.40
2022-10-16T11:21:41.314Z,3.20
2022-10-16T11:24:20.192Z,2.65
2022-10-16T11:26:51.343Z,3.40
2022-10-16T11:29:26.308Z,3.17
2022-10-16T11:32:06.786Z,3.67
2022-10-16T11:34:43.025Z,3.58
2022-10-16T11:37:15.495Z,3.28
2022-10-16T11:39:45.289Z,2.70
2022-10-16T11:42:21.104Z,3.05
2022-10-16T11:45:09.716Z,3.10
2022-10-16T11:47:59.279Z,3.10
2022-10-16T11:50:48.589Z,3.17
2022-10-16T11:53:25.085Z,3.47
2022-10-16T11:55:53.080Z,3.45
2022-10-16T11:58:27.718Z,3.10
2022-10-16T12:00:59.507Z,2.90
2022-10-16T12:03:52.159Z,3.50
2022-10-16T12:06:36.648Z,3.10
2022-10-16T12:09:05.242Z,3.53
2022-10-16T12:11:39.130Z,3.42
2022-10-16T12:14:19.663Z,3.20
2022-10-16T12:16:57.464Z,4.20
2022-10-16T12:19:30.749Z,3.30
2022-10-16T12:22:01.310Z,3.40
2022-10-16T12:24:28.556Z,3.40
2022-10-16T12:26:56.265Z,3.60
2022-10-16T12:29:44.064Z,3.75
2022-10-16T12:32:48.172Z,3.75
2022-10-16T12:35:22.745Z,3.58
2022-10-16T12:37:50.970Z,4.40
2022-10-16T12:40:31.993Z,4.10
2022-10-16T12:42:59.599Z,4.15
2022-10-16T12:45:28.919Z,3.65
2022-10-16T12:47:57.089Z,4.13
2022-10-16T12:50:45.325Z,3.90
2022-10-16T12:53:25.098Z,3.90
2022-10-16T12:56:24.565Z,3.83
2022-10-16T12:59:00.718Z,3.95
2022-10-16T13:01:53.991Z,4.22
2022-10-16T13:04:50.915Z,3.90
2022-10-16T13:07:26.729Z,4.50
2022-10-16T13:10:12.367Z,4.00
2022-10-16T13:12:53.565Z,3.55
2022-10-16T13:15:40.269Z,3.90
2022-10-16T13:18:20.675Z,4.05
2022-10-16T13:21:02.412Z,4.20
2022-10-16T13:23:53.602Z,3.92
2022-10-16T13:28:48.368Z,3.60
2022-10-16T13:31:25.220Z,3.88
2022-10-16T13:34:00.582Z,4.05
2022-10-16T13:36:36.930Z,3.60
2022-10-16T13:39:25.929Z,4.10
2022-10-16T13:42:09.232Z,4.40
2022-10-16T13:44:49.357Z,4.00
2022-10-16T13:47:25.721Z,3.67
2022-10-16T13:50:12.371Z,3.72
2022-10-16T13:52:39.842Z,3.47
2022-10-16T13:55:19.239Z,3.72
2022-10-16T13:57:46.934Z,3.83
2022-10-16T14:00:20.560Z,3.83
2022-10-16T14:03:14.661Z,3.60
2022-10-16T14:05:52.346Z,4.15
2022-10-16T14:08:20.414Z,3.95
2022-10-16T14:10:59.642Z,3.90
2022-10-16T14:13:35.617Z,3.75
2022-10-16T14:16:10.107Z,3.90
2022-10-16T14:18:39.954Z,3.90
2022-10-16T14:21:12.970Z,4.40
2022-10-16T14:23:42.245Z,3.75
2022-10-16T14:26:15.130Z,3.90
2022-10-16T14:28:44.297Z,3.85
2022-10-16T14:31:32.802Z,3.97
2022-10-16T14:34:00.837Z,3.78
2022-10-16T14:36:30.003Z,3.53
2022-10-16T14:39:29.985Z,4.10
2022-10-16T14:41:59.263Z,4.60
2022-10-16T14:44:35.433Z,4.22
2022-10-16T14:47:16.687Z,4.13
2022-10-16T14:49:44.334Z,4.18
2022-10-16T14:52:13.544Z,4.90
2022-10-16T14:54:41.874Z,4.18
2022-10-16T14:57:19.665Z,4.60
2022-10-16T14:59:47.783Z,4.95
2022-10-16T15:02:34.104Z,4.00
2022-10-16T15:05:27.454Z,4.20
2022-10-16T15:07:56.429Z,4.65
2022-10-16T15:10:26.985Z,4.50
2022-10-16T15:12:54.508Z,3.83
2022-10-16T15:15:25.248Z,3.83
2022-10-16T15:17:57.079Z,4.97
2022-10-16T15:20:25.815Z,4.90
2022-10-16T15:22:53.205Z,4.68
2022-10-16T15:25:30.022Z,4.18
2022-10-16T15:27:57.305Z,4.68
2022-10-16T15:30:25.764Z,4.70
2022-10-16T15:32:53.563Z,4.63
2022-10-16T15:35:21.076Z,4.65
2022-10-16T15:37:49.489Z,5.10
2022-10-16T15:40:18.528Z,5.03
2022-10-16T15:42:46.070Z,4.75
2022-10-16T15:45:14.485Z,5.55
2022-10-16T15:47:45.123Z,5.43
2022-10-16T15:50:15.218Z,5.70
2022-10-16T15:52:42.849Z,4.97
2022-10-16T15:55:12.486Z,5.70
2022-10-16T15:57:41.767Z,5.68
2022-10-16T16:00:12.207Z,5.72
2022-10-16T16:02:40.428Z,6.45
2022-10-16T16:05:09.202Z,8.55
2022-10-16T16:07:38.295Z,10.32
2022-10-16T16:10:08.422Z,7.40
2022-10-16T16:12:36.359Z,6.18
2022-10-16T16:15:05.954Z,6.53
2022-10-16T16:17:34.737Z,6.80
2022-10-16T16:20:02.609Z,5.88
2022-10-16T16:22:30.345Z,5.80
2022-10-16T16:24:58.047Z,5.97
2022-10-16T16:27:26.534Z,6.25
2022-10-16T16:29:56.318Z,5.75
2022-10-16T16:32:23.648Z,6.32
2022-10-16T16:34:50.895Z,6.53
2022-10-16T16:37:18.351Z,6.18
2022-10-16T16:39:45.761Z,6.25
2022-10-16T16:42:13.036Z,6.53
2022-10-16T16:44:40.428Z,5.60
2022-10-16T16:47:07.783Z,5.60
2022-10-16T16:49:35.078Z,6.00
2022-10-16T16:52:02.395Z,5.22
2022-10-16T16:54:29.811Z,6.43
2022-10-16T16:56:57.189Z,6.00
2022-10-16T16:59:24.522Z,5.95
2022-10-16T17:01:56.629Z,6.10
2022-10-16T17:04:24.908Z,5.97
2022-10-16T17:06:54.631Z,5.60
2022-10-16T17:09:22.021Z,6.28
2022-10-16T17:11:49.433Z,5.93
2022-10-16T17:14:16.854Z,6.70
2022-10-16T17:16:45.152Z,6.85
2022-10-16T17:19:15.433Z,6.35
2022-10-16T17:21:43.046Z,5.75
2022-10-16T17:24:11.195Z,5.03
2022-10-16T17:26:41.485Z,5.80
2022-10-16T17:29:12.694Z,5.32
2022-10-16T17:31:40.349Z,5.55
2022-10-16T17:34:10.754Z,6.95
2022-10-16T17:36:39.199Z,5.63
2022-10-16T17:39:08.736Z,6.38
2022-10-16T17:41:37.148Z,6.05
2022-10-16T17:44:06.359Z,6.20
2022-10-16T17:46:37.078Z,6.78
2022-10-16T17:49:07.602Z,6.45
2022-10-16T17:51:35.383Z,6.75
2022-10-16T17:54:02.876Z,6.90
2022-10-16T17:56:30.812Z,6.78
2022-10-16T17:59:00.695Z,6.07
2022-10-16T18:01:29.846Z,5.93
2022-10-16T18:04:07.482Z,6.63
2022-10-16T18:06:35.858Z,9.18
2022-10-16T18:09:04.864Z,6.68
2022-10-16T18:11:32.944Z,6.20
2022-10-16T18:14:00.530Z,5.15
2022-10-16T18:16:29.498Z,5.10
2022-10-16T18:18:57.700Z,4.43
2022-10-16T18:21:29.832Z,5.32
2022-10-16T18:23:59.678Z,5.65
2022-10-16T18:26:27.657Z,5.57
2022-10-16T18:28:57.095Z,5.70
2022-10-16T18:31:26.619Z,5.43
2022-10-16T18:33:55.833Z,5.65
2022-10-16T18:36:32.645Z,4.97
2022-10-16T18:39:01.399Z,5.38
2022-10-16T18:41:29.333Z,5.20
2022-10-16T18:43:56.559Z,4.90
2022-10-16T18:46:25.587Z,4.82
2022-10-16T18:48:54.477Z,4.90
2022-10-16T18:51:28.033Z,4.55
2022-10-16T18:53:58.469Z,4.13
2022-10-16T18:56:26.703Z,4.03
2022-10-16T18:58:54.728Z,4.25
2022-10-16T19:01:24.614Z,4.35
2022-10-16T19:04:01.007Z,4.60
2022-10-16T19:06:29.957Z,4.55
2022-10-16T19:08:57.447Z,4.30
2022-10-16T19:11:26.266Z,4.25
2022-10-16T19:13:57.267Z,4.80
2022-10-16T19:16:28.736Z,4.70
2022-10-16T19:18:58.267Z,4.85
2022-10-16T19:21:27.746Z,5.18
2022-10-16T19:23:59.644Z,4.80
2022-10-16T19:29:00.925Z,8.23
2022-10-16T19:31:30.345Z,5.85
2022-10-16T19:34:00.172Z,5.70
2022-10-16T19:36:33.430Z,5.55
2022-10-16T19:39:03.765Z,4.60
2022-10-16T19:41:31.960Z,5.40
2022-10-16T19:44:04.018Z,4.38
2022-10-16T19:46:32.485Z,4.78
2022-10-16T19:49:03.286Z,4.40
2022-10-16T19:51:31.668Z,3.88
2022-10-16T19:54:08.671Z,3.83
2022-10-16T19:56:36.410Z,3.65
2022-10-16T19:59:06.096Z,3.30
2022-10-16T20:01:34.040Z,3.47
2022-10-16T20:04:01.496Z,3.72
2022-10-16T20:06:29.093Z,3.80
2022-10-16T20:08:58.352Z,3.42
2022-10-16T20:11:28.630Z,3.28
2022-10-16T20:13:57.740Z,3.47
2022-10-16T20:16:26.225Z,3.75
2022-10-16T20:18:54.229Z,4.15
2022-10-16T20:21:27.569Z,3.63
2022-10-16T20:23:55.086Z,4.00
2022-10-16T20:26:24.592Z,3.80
2022-10-16T20:28:53.808Z,3.85
2022-10-16T20:31:24.048Z,4.70
2022-10-16T20:33:53.477Z,3.60
2022-10-16T20:36:25.980Z,4.22
2022-10-16T20:38:53.878Z,3.55
2022-10-16T20:41:21.283Z,4.13
2022-10-16T20:43:50.522Z,3.97
2022-10-16T20:46:20.921Z,3.75
2022-10-16T20:48:48.643Z,4.18
2022-10-16T20:51:24.933Z,4.35
2022-10-16T20:53:54.976Z,4.20
2022-10-16T20:56:25.216Z,4.20
2022-10-16T20:58:53.249Z,4.40
2022-10-16T21:01:23.424Z,3.88
2022-10-16T21:03:56.513Z,4.15
2022-10-16T21:06:24.574Z,4.88
2022-10-16T21:08:52.035Z,4.20
2022-10-16T21:11:22.891Z,3.63
2022-10-16T21:13:53.256Z,4.07
2022-10-16T21:16:21.342Z,4.22
2022-10-16T21:18:49.378Z,4.07
2022-10-16T21:21:31.491Z,4.10
2022-10-16T21:26:27.597Z,7.53
2022-10-16T21:29:06.565Z,6.30
2022-10-16T21:31:34.987Z,4.70
2022-10-16T21:34:03.083Z,4.60
2022-10-16T21:36:33.882Z,3.72
2022-10-16T21:39:15.559Z,4.15
2022-10-16T21:41:44.609Z,4.30
2022-10-16T21:44:12.520Z,3.75
2022-10-16T21:46:41.958Z,4.10
2022-10-16T21:49:15.449Z,3.63
2022-10-16T21:51:46.197Z,4.00
2022-10-16T21:54:17.175Z,4.00
2022-10-16T21:56:44.737Z,4.07
2022-10-16T21:59:13.713Z,4.03
2022-10-16T22:01:42.641Z,3.72
2022-10-16T22:04:15.161Z,4.03
2022-10-16T22:06:49.775Z,4.22
2022-10-16T22:09:20.256Z,4.40
2022-10-16T22:11:47.612Z,4.85
2022-10-16T22:14:18.469Z,4.38
2022-10-16T22:16:47.264Z,4.20
2022-10-16T22:19:16.294Z,4.03
2022-10-16T22:21:46.147Z,4.25
2022-10-16T22:24:15.018Z,4.63
2022-10-16T22:26:42.600Z,4.60
2022-10-16T22:29:13.172Z,4.65
2022-10-16T22:31:40.846Z,4.93
2022-10-16T22:34:08.807Z,4.95
2022-10-16T22:36:36.082Z,5.70
2022-10-16T22:39:04.305Z,6.25
2022-10-16T22:41:32.012Z,5.28
2022-10-16T22:43:59.275Z,4.25
2022-10-16T22:46:28.904Z,4.22
2022-10-16T22:48:56.857Z,4.38
2022-10-16T22:51:25.440Z,4.68
2022-10-16T22:53:52.772Z,4.35
2022-10-16T22:56:21.734Z,4.15
2022-10-16T22:58:49.307Z,4.25
2022-10-16T23:01:21.442Z,4.85
2022-10-16T23:03:48.954Z,4.47
2022-10-16T23:06:16.515Z,4.57
2022-10-16T23:08:44.451Z,4.90
2022-10-16T23:11:13.503Z,5.05
2022-10-16T23:13:45.766Z,4.65
2022-10-16T23:16:16.059Z,4.60
2022-10-16T23:18:44.212Z,4.90
2022-10-16T23:21:14.593Z,5.30
2022-10-16T23:23:43.126Z,5.28
2022-10-16T23:26:12.901Z,5.38
2022-10-16T23:28:40.294Z,5.00
2022-10-16T23:31:08.312Z,5.28
2022-10-16T23:33:37.505Z,5.50
2022-10-16T23:36:07.611Z,5.57
2022-10-16T23:38:35.029Z,5.03
2022-10-16T23:41:02.787Z,5.10
2022-10-16T23:43:30.204Z,5.50
2022-10-16T23:45:57.679Z,4.82
2022-10-16T23:48:25.118Z,4.97
2022-10-16T23:50:52.489Z,5.07
2022-10-16T23:53:20.148Z,5.10
2022-10-16T23:55:47.441Z,4.80
2022-10-16T23:58:14.743Z,5.30
